Preston, Idaho
Current Conditions -  °F | °C
As of 10:51 PM on Saturday 25 Oct 2014 (Local Time) from KLGU Reporting Station
Clear Clear  
Wind Chill: 70°   Ceiling: Unl
Heat Index: 70°   Visibility: 10mi
Dew Point: 37°   Wind: 28mph
Humidity: 30%   Direction: 200°SSW
Pressure: 29.85"   Gusts: 37mph
Location:  42.1°N, 111.88°W
Report Text: KLGU 260451Z AUTO 20024G32KT 10SM CLR 21/03 A2985 RMK AO2 PK WND 20032/0445 RAB17E33 SLP068 P0000 T02110028 TSNO
Loading
Personal Weather Stations






























Interactive Weather Map
Tropical Storm Tracking
New forecast layout! Learn more

10-Day Weather Forecast

Advertisements
Track Severe Weather on mobile